AEE292 LGZA-LFPG
Flight info
| Callsign | AEE292 |
|---|---|
| Flight time | 2h 53m |
| Altitude | 36000 |
| Route | KFN UN732 KRK UM127 NIKRO DCT EBELA DCT MADOS DCT ROTAR/N0449F380 DCT SUXAN L613 ARGAX DCT DEVDI DCT LUVAL |
| Aircraft | A20N/M-SDE2E3FGHIRWXY/LB1 |
Departure
| Time | 2026-05-05 13:32 |
|---|---|
| Airport | Zakynthos International Airport Dionysios Solomos (LGZA) |
Arrival
| Time | 2026-05-05 16:25 |
|---|---|
| Airport | Charles de Gaulle International Airport (LFPG) |
| Time | Latitude | Longitude | Altitude | Speed | Heading |
|---|---|---|---|---|---|
| 2026-05-05 13:14 | 37.75368 | 20.88538 | 25 ft | 0 kts | 72° |
| 2026-05-05 13:25 | 37.75367 | 20.88532 | 25 ft | 2 kts | 73° |
| 2026-05-05 13:25 | 37.75362 | 20.88512 | 27 ft | 2 kts | 72° |
| 2026-05-05 13:25 | 37.75357 | 20.88492 | 29 ft | 2 kts | 71° |
| 2026-05-05 13:25 | 37.75351 | 20.88473 | 27 ft | 2 kts | 65° |
| 2026-05-05 13:26 | 37.75340 | 20.88458 | 29 ft | 2 kts | 0° |
| 2026-05-05 13:26 | 37.75335 | 20.88458 | 28 ft | 0 kts | 347° |
| 2026-05-05 13:28 | 37.75338 | 20.88458 | 29 ft | 3 kts | 348° |
| 2026-05-05 13:28 | 37.75419 | 20.88426 | 26 ft | 17 kts | 340° |
| 2026-05-05 13:28 | 37.75487 | 20.88319 | 25 ft | 16 kts | 290° |
| 2026-05-05 13:29 | 37.75568 | 20.88250 | 26 ft | 14 kts | 343° |
| 2026-05-05 13:29 | 37.75651 | 20.88219 | 27 ft | 11 kts | 343° |
| 2026-05-05 13:29 | 37.75719 | 20.88194 | 27 ft | 9 kts | 343° |
| 2026-05-05 13:29 | 37.75780 | 20.88171 | 27 ft | 9 kts | 344° |
| 2026-05-05 13:30 | 37.75845 | 20.88148 | 26 ft | 13 kts | 344° |
| 2026-05-05 13:30 | 37.75942 | 20.88112 | 25 ft | 14 kts | 342° |
| 2026-05-05 13:30 | 37.76020 | 20.88045 | 25 ft | 13 kts | 306° |
| 2026-05-05 13:30 | 37.76040 | 20.88040 | 25 ft | 1 kts | 55° |
| 2026-05-05 13:31 | 37.76036 | 20.88056 | 26 ft | 5 kts | 117° |
| 2026-05-05 13:31 | 37.75997 | 20.88087 | 25 ft | 6 kts | 160° |
| 2026-05-05 13:31 | 37.75957 | 20.88102 | 26 ft | 8 kts | 163° |
| 2026-05-05 13:31 | 37.75739 | 20.88184 | 27 ft | 62 kts | 163° |
| 2026-05-05 13:32 | 37.75135 | 20.88413 | 23 ft | 119 kts | 163° |
| 2026-05-05 13:32 | 37.74199 | 20.88777 | 154 ft | 149 kts | 162° |
| 2026-05-05 13:32 | 37.73246 | 20.89145 | 782 ft | 141 kts | 166° |
| 2026-05-05 13:32 | 37.72205 | 20.89543 | 948 ft | 169 kts | 165° |
| 2026-05-05 13:33 | 37.71079 | 20.89984 | 1488 ft | 167 kts | 166° |
| 2026-05-05 13:33 | 37.69929 | 20.90436 | 1901 ft | 183 kts | 165° |
| 2026-05-05 13:33 | 37.68628 | 20.90943 | 2208 ft | 205 kts | 165° |
| 2026-05-05 13:33 | 37.67215 | 20.91490 | 2623 ft | 222 kts | 165° |
| 2026-05-05 13:34 | 37.65616 | 20.91556 | 2873 ft | 242 kts | 201° |
| 2026-05-05 13:34 | 37.64289 | 20.90297 | 3482 ft | 242 kts | 240° |
| 2026-05-05 13:34 | 37.63873 | 20.88290 | 4184 ft | 239 kts | 278° |
| 2026-05-05 13:34 | 37.64530 | 20.86398 | 4907 ft | 241 kts | 315° |
| 2026-05-05 13:35 | 37.65961 | 20.85345 | 5679 ft | 243 kts | 347° |
| 2026-05-05 13:35 | 37.67623 | 20.85364 | 6506 ft | 246 kts | 12° |
| 2026-05-05 13:35 | 37.69288 | 20.86005 | 7300 ft | 248 kts | 18° |
| 2026-05-05 13:35 | 37.70894 | 20.86725 | 8046 ft | 249 kts | 18° |
| 2026-05-05 13:36 | 37.72541 | 20.87452 | 8790 ft | 252 kts | 18° |
| 2026-05-05 13:36 | 37.74213 | 20.88167 | 9521 ft | 255 kts | 17° |
| 2026-05-05 13:36 | 37.75942 | 20.88709 | 10175 ft | 260 kts | 3° |
| 2026-05-05 13:36 | 37.77754 | 20.88237 | 10442 ft | 279 kts | 330° |
| 2026-05-05 13:37 | 37.79177 | 20.86469 | 10688 ft | 302 kts | 302° |
| 2026-05-05 13:37 | 37.80142 | 20.84005 | 10955 ft | 322 kts | 299° |
| 2026-05-05 13:37 | 37.81556 | 20.81752 | 11206 ft | 337 kts | 319° |
| 2026-05-05 13:37 | 37.83394 | 20.79807 | 11657 ft | 349 kts | 322° |
| 2026-05-05 13:38 | 37.85302 | 20.77880 | 12334 ft | 353 kts | 322° |
| 2026-05-05 13:38 | 37.87218 | 20.75921 | 13074 ft | 355 kts | 322° |
| 2026-05-05 13:38 | 37.89134 | 20.73934 | 13773 ft | 358 kts | 321° |
| 2026-05-05 13:38 | 37.91064 | 20.71911 | 14372 ft | 361 kts | 321° |
| 2026-05-05 13:39 | 37.92999 | 20.69870 | 14969 ft | 364 kts | 321° |
| 2026-05-05 13:39 | 37.94950 | 20.67804 | 15584 ft | 366 kts | 321° |
| 2026-05-05 13:39 | 37.96913 | 20.65721 | 16158 ft | 369 kts | 320° |
| 2026-05-05 13:39 | 37.98893 | 20.63620 | 16764 ft | 372 kts | 320° |
| 2026-05-05 13:40 | 38.00883 | 20.61515 | 17348 ft | 375 kts | 320° |
| 2026-05-05 13:40 | 38.02896 | 20.59385 | 17921 ft | 377 kts | 320° |
| 2026-05-05 13:40 | 38.04922 | 20.57240 | 18472 ft | 380 kts | 320° |
| 2026-05-05 13:40 | 38.06932 | 20.55110 | 18958 ft | 382 kts | 320° |
| 2026-05-05 13:41 | 38.08994 | 20.52968 | 19455 ft | 385 kts | 322° |
| 2026-05-05 13:41 | 38.11238 | 20.51108 | 19960 ft | 387 kts | 331° |
| 2026-05-05 13:41 | 38.13719 | 20.49755 | 20465 ft | 390 kts | 339° |
| 2026-05-05 13:41 | 38.16325 | 20.48722 | 20969 ft | 393 kts | 342° |
| 2026-05-05 13:42 | 38.18970 | 20.47835 | 21450 ft | 395 kts | 344° |
| 2026-05-05 13:42 | 38.21662 | 20.47008 | 21911 ft | 397 kts | 345° |
| 2026-05-05 13:42 | 38.24361 | 20.46200 | 22355 ft | 400 kts | 344° |
| 2026-05-05 13:42 | 38.27076 | 20.45379 | 22797 ft | 402 kts | 344° |
| 2026-05-05 13:43 | 38.29795 | 20.44543 | 23220 ft | 404 kts | 344° |
| 2026-05-05 13:43 | 38.32506 | 20.43695 | 23667 ft | 405 kts | 343° |
| 2026-05-05 13:43 | 38.35245 | 20.42827 | 24047 ft | 407 kts | 343° |
| 2026-05-05 13:43 | 38.37992 | 20.41949 | 24406 ft | 409 kts | 343° |
| 2026-05-05 13:44 | 38.40756 | 20.41062 | 24771 ft | 410 kts | 343° |
| 2026-05-05 13:44 | 38.43535 | 20.40168 | 25151 ft | 411 kts | 343° |
| 2026-05-05 13:44 | 38.46315 | 20.39273 | 25522 ft | 413 kts | 343° |
| 2026-05-05 13:44 | 38.49101 | 20.38375 | 25889 ft | 414 kts | 343° |
| 2026-05-05 13:45 | 38.51905 | 20.37472 | 26244 ft | 415 kts | 343° |
| 2026-05-05 13:45 | 38.54707 | 20.36569 | 26591 ft | 416 kts | 343° |
| 2026-05-05 13:45 | 38.57528 | 20.35659 | 26924 ft | 418 kts | 343° |
| 2026-05-05 13:45 | 38.60356 | 20.34747 | 27239 ft | 419 kts | 343° |
| 2026-05-05 13:46 | 38.63195 | 20.33830 | 27559 ft | 420 kts | 342° |
| 2026-05-05 13:46 | 38.66037 | 20.32912 | 27860 ft | 422 kts | 342° |
| 2026-05-05 13:46 | 38.68877 | 20.31994 | 28285 ft | 420 kts | 342° |
| 2026-05-05 13:46 | 38.71669 | 20.31092 | 28740 ft | 417 kts | 342° |
| 2026-05-05 13:47 | 38.74516 | 20.30171 | 29194 ft | 415 kts | 342° |
| 2026-05-05 13:47 | 38.76371 | 20.29570 | 29491 ft | 414 kts | 342° |
| 2026-05-05 13:47 | 38.80056 | 20.28376 | 30043 ft | 412 kts | 342° |
| 2026-05-05 13:47 | 38.82832 | 20.27474 | 30412 ft | 410 kts | 342° |
| 2026-05-05 13:48 | 38.85598 | 20.26576 | 30746 ft | 409 kts | 342° |
| 2026-05-05 13:48 | 38.87460 | 20.25970 | 30966 ft | 408 kts | 342° |
| 2026-05-05 13:48 | 38.90165 | 20.25090 | 31300 ft | 406 kts | 342° |
| 2026-05-05 13:48 | 38.92902 | 20.24198 | 31630 ft | 404 kts | 342° |
| 2026-05-05 13:49 | 38.95620 | 20.23312 | 31961 ft | 403 kts | 342° |
| 2026-05-05 13:49 | 38.98334 | 20.22426 | 32295 ft | 401 kts | 342° |
| 2026-05-05 13:49 | 39.01028 | 20.21544 | 32613 ft | 399 kts | 342° |
| 2026-05-05 13:49 | 39.03709 | 20.20665 | 32929 ft | 397 kts | 342° |
| 2026-05-05 13:50 | 39.06379 | 20.19788 | 33239 ft | 395 kts | 342° |
| 2026-05-05 13:50 | 39.09031 | 20.18918 | 33543 ft | 393 kts | 342° |
| 2026-05-05 13:50 | 39.11675 | 20.18051 | 33857 ft | 391 kts | 342° |
| 2026-05-05 13:50 | 39.14305 | 20.17188 | 34152 ft | 388 kts | 342° |
| 2026-05-05 13:51 | 39.16921 | 20.16331 | 34363 ft | 388 kts | 342° |
| 2026-05-05 13:51 | 39.19536 | 20.15472 | 34500 ft | 389 kts | 342° |
| 2026-05-05 13:51 | 39.22156 | 20.14610 | 34626 ft | 389 kts | 342° |
| 2026-05-05 13:51 | 39.24787 | 20.13745 | 34788 ft | 390 kts | 342° |
| 2026-05-05 13:52 | 39.27420 | 20.12878 | 34930 ft | 390 kts | 341° |
| 2026-05-05 13:52 | 39.30050 | 20.12012 | 35071 ft | 391 kts | 341° |
| 2026-05-05 13:52 | 39.33543 | 20.10861 | 35256 ft | 391 kts | 341° |
| 2026-05-05 13:52 | 39.35293 | 20.10285 | 35344 ft | 391 kts | 341° |
| 2026-05-05 13:53 | 39.37933 | 20.09414 | 35480 ft | 392 kts | 341° |
| 2026-05-05 13:53 | 39.40574 | 20.08555 | 35612 ft | 393 kts | 343° |
| 2026-05-05 13:53 | 39.43294 | 20.07978 | 35728 ft | 398 kts | 349° |
| 2026-05-05 13:53 | 39.46083 | 20.07882 | 35827 ft | 405 kts | 357° |
| 2026-05-05 13:54 | 39.48904 | 20.08236 | 35938 ft | 409 kts | 0° |
| 2026-05-05 13:54 | 39.51728 | 20.08742 | 36051 ft | 411 kts | 2° |
| 2026-05-05 13:54 | 39.57401 | 20.09952 | 36128 ft | 416 kts | 3° |
| 2026-05-05 13:55 | 39.63110 | 20.10825 | 36128 ft | 407 kts | 353° |
| 2026-05-05 13:55 | 39.68600 | 20.09746 | 36129 ft | 395 kts | 337° |
| 2026-05-05 13:56 | 39.73484 | 20.06762 | 36130 ft | 390 kts | 327° |
| 2026-05-05 13:56 | 39.78186 | 20.03160 | 36127 ft | 390 kts | 326° |
| 2026-05-05 13:57 | 39.82786 | 19.99516 | 36126 ft | 390 kts | 326° |
| 2026-05-05 13:57 | 39.87463 | 19.95838 | 36124 ft | 390 kts | 326° |
| 2026-05-05 13:58 | 39.92098 | 19.92222 | 36124 ft | 391 kts | 326° |
| 2026-05-05 13:58 | 39.96765 | 19.88586 | 36123 ft | 390 kts | 326° |
| 2026-05-05 13:59 | 40.03753 | 19.83133 | 36120 ft | 390 kts | 326° |
| 2026-05-05 14:00 | 40.10752 | 19.77654 | 36119 ft | 392 kts | 325° |
| 2026-05-05 14:00 | 40.15417 | 19.73995 | 36116 ft | 391 kts | 325° |
| 2026-05-05 14:01 | 40.20076 | 19.70334 | 36112 ft | 391 kts | 325° |
| 2026-05-05 14:01 | 40.24740 | 19.66664 | 36113 ft | 390 kts | 325° |
| 2026-05-05 14:02 | 40.29392 | 19.62995 | 36109 ft | 391 kts | 325° |
| 2026-05-05 14:02 | 40.34055 | 19.59314 | 36109 ft | 390 kts | 325° |
| 2026-05-05 14:03 | 40.38696 | 19.55644 | 36107 ft | 389 kts | 325° |
| 2026-05-05 14:03 | 40.43343 | 19.51962 | 36107 ft | 390 kts | 325° |
| 2026-05-05 14:04 | 40.47956 | 19.48303 | 36101 ft | 389 kts | 325° |
| 2026-05-05 14:04 | 40.52591 | 19.44619 | 36097 ft | 389 kts | 325° |
| 2026-05-05 14:05 | 40.57235 | 19.40923 | 36100 ft | 389 kts | 325° |
| 2026-05-05 14:05 | 40.61872 | 19.37226 | 36100 ft | 389 kts | 325° |
| 2026-05-05 14:06 | 40.66503 | 19.33529 | 36100 ft | 389 kts | 325° |
| 2026-05-05 14:06 | 40.71128 | 19.29829 | 36097 ft | 389 kts | 324° |
| 2026-05-05 14:07 | 40.75749 | 19.26126 | 36099 ft | 389 kts | 324° |
| 2026-05-05 14:07 | 40.80370 | 19.22417 | 36100 ft | 389 kts | 324° |
| 2026-05-05 14:08 | 40.84990 | 19.18703 | 36097 ft | 389 kts | 324° |
| 2026-05-05 14:08 | 40.89608 | 19.14985 | 36098 ft | 389 kts | 324° |
| 2026-05-05 14:09 | 40.94231 | 19.11256 | 36094 ft | 389 kts | 324° |
| 2026-05-05 14:09 | 40.98822 | 19.07547 | 36095 ft | 389 kts | 324° |
| 2026-05-05 14:10 | 41.03450 | 19.03801 | 36093 ft | 389 kts | 324° |
| 2026-05-05 14:10 | 41.08072 | 19.00055 | 36094 ft | 390 kts | 324° |
| 2026-05-05 14:11 | 41.12697 | 18.96299 | 36089 ft | 390 kts | 324° |
| 2026-05-05 14:11 | 41.17328 | 18.92544 | 36090 ft | 391 kts | 326° |
| 2026-05-05 14:12 | 41.22326 | 18.89562 | 36094 ft | 397 kts | 334° |
| 2026-05-05 14:12 | 41.27545 | 18.87075 | 36090 ft | 399 kts | 335° |
| 2026-05-05 14:13 | 41.32773 | 18.84698 | 36089 ft | 400 kts | 335° |
| 2026-05-05 14:13 | 41.38070 | 18.82291 | 36087 ft | 400 kts | 335° |
| 2026-05-05 14:14 | 41.43331 | 18.79878 | 36091 ft | 400 kts | 335° |
| 2026-05-05 14:14 | 41.48570 | 18.77462 | 36089 ft | 401 kts | 335° |
| 2026-05-05 14:15 | 41.53843 | 18.75024 | 36089 ft | 401 kts | 335° |
| 2026-05-05 14:15 | 41.59130 | 18.72575 | 36090 ft | 402 kts | 335° |
| 2026-05-05 14:16 | 41.64434 | 18.70115 | 36089 ft | 403 kts | 335° |
| 2026-05-05 14:16 | 41.69742 | 18.67649 | 36089 ft | 404 kts | 335° |
| 2026-05-05 14:17 | 41.75056 | 18.65177 | 36094 ft | 405 kts | 335° |
| 2026-05-05 14:17 | 41.80373 | 18.62698 | 36091 ft | 405 kts | 335° |
| 2026-05-05 14:18 | 41.85704 | 18.60208 | 36089 ft | 406 kts | 335° |
| 2026-05-05 14:18 | 41.91051 | 18.57706 | 36091 ft | 407 kts | 335° |
| 2026-05-05 14:19 | 41.96369 | 18.55214 | 36076 ft | 407 kts | 335° |
| 2026-05-05 14:19 | 42.01731 | 18.52696 | 36096 ft | 408 kts | 335° |
| 2026-05-05 14:20 | 42.07107 | 18.50168 | 36092 ft | 409 kts | 335° |
| 2026-05-05 14:20 | 42.12484 | 18.47634 | 36096 ft | 410 kts | 335° |
| 2026-05-05 14:21 | 42.17874 | 18.45090 | 36106 ft | 410 kts | 335° |
| 2026-05-05 14:21 | 42.23272 | 18.42537 | 36096 ft | 411 kts | 335° |
| 2026-05-05 14:22 | 42.28639 | 18.39994 | 36093 ft | 412 kts | 335° |
| 2026-05-05 14:22 | 42.34056 | 18.37423 | 36115 ft | 413 kts | 335° |
| 2026-05-05 14:23 | 42.39476 | 18.34846 | 36116 ft | 413 kts | 335° |
| 2026-05-05 14:23 | 42.44914 | 18.32255 | 36127 ft | 414 kts | 335° |
| 2026-05-05 14:24 | 42.50349 | 18.29662 | 36128 ft | 415 kts | 335° |
| 2026-05-05 14:24 | 42.55781 | 18.26992 | 36134 ft | 413 kts | 331° |
| 2026-05-05 14:25 | 42.60644 | 18.23018 | 36134 ft | 405 kts | 316° |
| 2026-05-05 14:25 | 42.64414 | 18.17485 | 36123 ft | 402 kts | 306° |
| 2026-05-05 14:26 | 42.67800 | 18.11438 | 36122 ft | 402 kts | 304° |
| 2026-05-05 14:26 | 42.71115 | 18.05303 | 36114 ft | 403 kts | 304° |
| 2026-05-05 14:27 | 42.74441 | 17.99174 | 36101 ft | 403 kts | 304° |
| 2026-05-05 14:27 | 42.77790 | 17.93040 | 36095 ft | 404 kts | 304° |
| 2026-05-05 14:28 | 42.81148 | 17.86897 | 36083 ft | 404 kts | 304° |
| 2026-05-05 14:28 | 42.84506 | 17.80745 | 36083 ft | 404 kts | 304° |
| 2026-05-05 14:29 | 42.87835 | 17.74629 | 36084 ft | 404 kts | 304° |
| 2026-05-05 14:29 | 42.91188 | 17.68457 | 36082 ft | 405 kts | 304° |
| 2026-05-05 14:30 | 42.94539 | 17.62274 | 36079 ft | 405 kts | 304° |
| 2026-05-05 14:30 | 42.97886 | 17.56086 | 36080 ft | 405 kts | 304° |
| 2026-05-05 14:31 | 43.01229 | 17.49891 | 36080 ft | 405 kts | 304° |
| 2026-05-05 14:31 | 43.04577 | 17.43675 | 36076 ft | 406 kts | 304° |
| 2026-05-05 14:32 | 43.07928 | 17.37441 | 36074 ft | 406 kts | 304° |
| 2026-05-05 14:32 | 43.11246 | 17.31254 | 36076 ft | 406 kts | 303° |
| 2026-05-05 14:33 | 43.14585 | 17.25017 | 36074 ft | 406 kts | 303° |
| 2026-05-05 14:33 | 43.17922 | 17.18770 | 36072 ft | 406 kts | 303° |
| 2026-05-05 14:34 | 43.20716 | 17.13527 | 36072 ft | 406 kts | 303° |
| 2026-05-05 14:34 | 43.24029 | 17.07300 | 36066 ft | 407 kts | 303° |
| 2026-05-05 14:35 | 43.27359 | 17.01029 | 36068 ft | 407 kts | 303° |
| 2026-05-05 14:35 | 43.30692 | 16.94739 | 36071 ft | 407 kts | 303° |
| 2026-05-05 14:36 | 43.34024 | 16.88437 | 36070 ft | 407 kts | 303° |
| 2026-05-05 14:36 | 43.37348 | 16.82136 | 36070 ft | 408 kts | 303° |
| 2026-05-05 14:37 | 43.40676 | 16.75814 | 36070 ft | 408 kts | 303° |
| 2026-05-05 14:37 | 43.43995 | 16.69494 | 36078 ft | 408 kts | 303° |
| 2026-05-05 14:38 | 43.47292 | 16.63204 | 36083 ft | 408 kts | 303° |
| 2026-05-05 14:38 | 43.50606 | 16.56867 | 36090 ft | 408 kts | 303° |
| 2026-05-05 14:39 | 43.53920 | 16.50519 | 36098 ft | 408 kts | 303° |
| 2026-05-05 14:39 | 43.57227 | 16.44169 | 36101 ft | 408 kts | 303° |
| 2026-05-05 14:40 | 43.60536 | 16.37803 | 36103 ft | 408 kts | 303° |
| 2026-05-05 14:40 | 43.63841 | 16.31430 | 36102 ft | 408 kts | 303° |
| 2026-05-05 14:41 | 43.67146 | 16.25042 | 36095 ft | 408 kts | 303° |
| 2026-05-05 14:41 | 43.70445 | 16.18652 | 36092 ft | 409 kts | 303° |
| 2026-05-05 14:42 | 43.73746 | 16.12244 | 36086 ft | 409 kts | 303° |
| 2026-05-05 14:42 | 43.77042 | 16.05832 | 36077 ft | 409 kts | 303° |
| 2026-05-05 14:43 | 43.80317 | 15.99445 | 36072 ft | 409 kts | 303° |
| 2026-05-05 14:43 | 43.83611 | 15.93009 | 36070 ft | 409 kts | 303° |
| 2026-05-05 14:44 | 43.86903 | 15.86564 | 36067 ft | 410 kts | 303° |
| 2026-05-05 14:44 | 43.90193 | 15.80108 | 36068 ft | 410 kts | 303° |
| 2026-05-05 14:45 | 43.93479 | 15.73644 | 36074 ft | 410 kts | 302° |
| 2026-05-05 14:45 | 43.96764 | 15.67169 | 36074 ft | 410 kts | 302° |
| 2026-05-05 14:46 | 44.00031 | 15.60714 | 36074 ft | 411 kts | 302° |
| 2026-05-05 14:46 | 44.03316 | 15.54211 | 36079 ft | 411 kts | 302° |
| 2026-05-05 14:47 | 44.06596 | 15.47700 | 36074 ft | 411 kts | 302° |
| 2026-05-05 14:47 | 44.09878 | 15.41173 | 36076 ft | 412 kts | 302° |
| 2026-05-05 14:48 | 44.13157 | 15.34637 | 36077 ft | 412 kts | 302° |
| 2026-05-05 14:48 | 44.16434 | 15.28089 | 36073 ft | 412 kts | 302° |
| 2026-05-05 14:49 | 44.19705 | 15.21540 | 36072 ft | 412 kts | 302° |
| 2026-05-05 14:49 | 44.22981 | 15.14964 | 36074 ft | 413 kts | 302° |
| 2026-05-05 14:50 | 44.26232 | 15.08426 | 36075 ft | 413 kts | 302° |
| 2026-05-05 14:50 | 44.29503 | 15.01833 | 36072 ft | 413 kts | 302° |
| 2026-05-05 14:51 | 44.32774 | 14.95223 | 36074 ft | 414 kts | 302° |
| 2026-05-05 14:51 | 44.36045 | 14.88599 | 36070 ft | 414 kts | 302° |
| 2026-05-05 14:52 | 44.39313 | 14.81965 | 36064 ft | 414 kts | 302° |
| 2026-05-05 14:52 | 44.42578 | 14.75322 | 36059 ft | 415 kts | 302° |
| 2026-05-05 14:53 | 44.45847 | 14.68657 | 36062 ft | 415 kts | 302° |
| 2026-05-05 14:53 | 44.49110 | 14.61988 | 36051 ft | 415 kts | 302° |
| 2026-05-05 14:54 | 44.52356 | 14.55337 | 36043 ft | 416 kts | 302° |
| 2026-05-05 14:54 | 44.55620 | 14.48636 | 36043 ft | 416 kts | 301° |
| 2026-05-05 14:55 | 44.58884 | 14.41919 | 36039 ft | 417 kts | 301° |
| 2026-05-05 14:55 | 44.62152 | 14.35176 | 36038 ft | 417 kts | 301° |
| 2026-05-05 14:56 | 44.65398 | 14.28466 | 36028 ft | 417 kts | 301° |
| 2026-05-05 14:56 | 44.68677 | 14.21668 | 36029 ft | 418 kts | 301° |
| 2026-05-05 14:57 | 44.71913 | 14.14945 | 36026 ft | 418 kts | 301° |
| 2026-05-05 14:57 | 44.75170 | 14.08164 | 36024 ft | 418 kts | 301° |
| 2026-05-05 14:58 | 44.78428 | 14.01364 | 36023 ft | 419 kts | 301° |
| 2026-05-05 14:58 | 44.81680 | 13.94559 | 36024 ft | 419 kts | 301° |
| 2026-05-05 14:59 | 44.84936 | 13.87731 | 36020 ft | 419 kts | 301° |
| 2026-05-05 14:59 | 44.88188 | 13.80895 | 36021 ft | 420 kts | 301° |
| 2026-05-05 15:00 | 44.90888 | 13.75206 | 36019 ft | 420 kts | 301° |
| 2026-05-05 15:00 | 44.94665 | 13.67229 | 36017 ft | 421 kts | 300° |
| 2026-05-05 15:01 | 44.97912 | 13.60355 | 36010 ft | 421 kts | 300° |
| 2026-05-05 15:01 | 45.01164 | 13.53452 | 36003 ft | 421 kts | 300° |
| 2026-05-05 15:02 | 45.04405 | 13.46558 | 35990 ft | 421 kts | 300° |
| 2026-05-05 15:02 | 45.07644 | 13.39651 | 35990 ft | 421 kts | 300° |
| 2026-05-05 15:03 | 45.10885 | 13.32720 | 35988 ft | 422 kts | 300° |
| 2026-05-05 15:03 | 45.14118 | 13.25792 | 35985 ft | 422 kts | 300° |
| 2026-05-05 15:04 | 45.17350 | 13.18849 | 35977 ft | 423 kts | 300° |
| 2026-05-05 15:04 | 45.20583 | 13.11886 | 35974 ft | 423 kts | 300° |
| 2026-05-05 15:05 | 45.25410 | 13.01460 | 35975 ft | 423 kts | 300° |
| 2026-05-05 15:06 | 45.28826 | 12.94629 | 35975 ft | 425 kts | 303° |
| 2026-05-05 15:06 | 45.32455 | 12.87953 | 35979 ft | 426 kts | 304° |
| 2026-05-05 15:07 | 45.36092 | 12.81294 | 35981 ft | 426 kts | 303° |
| 2026-05-05 15:07 | 45.39700 | 12.74606 | 35989 ft | 427 kts | 303° |
| 2026-05-05 15:08 | 45.43303 | 12.67868 | 35992 ft | 427 kts | 303° |
| 2026-05-05 15:08 | 45.46870 | 12.61172 | 35996 ft | 427 kts | 303° |
| 2026-05-05 15:09 | 45.50462 | 12.54414 | 35996 ft | 428 kts | 303° |
| 2026-05-05 15:09 | 45.54053 | 12.47645 | 35994 ft | 428 kts | 303° |
| 2026-05-05 15:10 | 45.57648 | 12.40854 | 35995 ft | 428 kts | 303° |
| 2026-05-05 15:10 | 45.61206 | 12.34116 | 35995 ft | 428 kts | 303° |
| 2026-05-05 15:11 | 45.64786 | 12.27321 | 35993 ft | 428 kts | 303° |
| 2026-05-05 15:11 | 45.68366 | 12.20508 | 35995 ft | 428 kts | 303° |
| 2026-05-05 15:12 | 45.71941 | 12.13690 | 36023 ft | 428 kts | 303° |
| 2026-05-05 15:12 | 45.75514 | 12.06857 | 36018 ft | 429 kts | 302° |
| 2026-05-05 15:13 | 45.79089 | 12.00005 | 36020 ft | 429 kts | 302° |
| 2026-05-05 15:13 | 45.82663 | 11.93138 | 36015 ft | 429 kts | 302° |
| 2026-05-05 15:14 | 45.86214 | 11.86298 | 36021 ft | 429 kts | 302° |
| 2026-05-05 15:14 | 45.89781 | 11.79411 | 36012 ft | 430 kts | 302° |
| 2026-05-05 15:15 | 45.93338 | 11.72529 | 36014 ft | 430 kts | 302° |
| 2026-05-05 15:15 | 45.96907 | 11.65604 | 36015 ft | 430 kts | 302° |
| 2026-05-05 15:16 | 46.00462 | 11.58688 | 36002 ft | 430 kts | 302° |
| 2026-05-05 15:16 | 46.03992 | 11.51807 | 36003 ft | 430 kts | 302° |
| 2026-05-05 15:17 | 46.07539 | 11.44873 | 36006 ft | 430 kts | 302° |
| 2026-05-05 15:17 | 46.11092 | 11.37909 | 36005 ft | 431 kts | 302° |
| 2026-05-05 15:18 | 46.14637 | 11.30945 | 36011 ft | 431 kts | 302° |
| 2026-05-05 15:18 | 46.18189 | 11.23950 | 36016 ft | 431 kts | 301° |
| 2026-05-05 15:19 | 46.21729 | 11.16962 | 36021 ft | 432 kts | 301° |
| 2026-05-05 15:19 | 46.25250 | 11.09998 | 36030 ft | 432 kts | 301° |
| 2026-05-05 15:20 | 46.28792 | 11.02970 | 36022 ft | 432 kts | 301° |
| 2026-05-05 15:20 | 46.32333 | 10.95930 | 36019 ft | 433 kts | 301° |
| 2026-05-05 15:21 | 46.35865 | 10.88884 | 36012 ft | 433 kts | 301° |
| 2026-05-05 15:21 | 46.39401 | 10.81816 | 36007 ft | 433 kts | 301° |
| 2026-05-05 15:22 | 46.42927 | 10.74744 | 35990 ft | 433 kts | 300° |
| 2026-05-05 15:22 | 46.45862 | 10.68849 | 35977 ft | 434 kts | 300° |
| 2026-05-05 15:23 | 46.49964 | 10.60592 | 35969 ft | 434 kts | 300° |
| 2026-05-05 15:23 | 46.52898 | 10.54669 | 35963 ft | 434 kts | 300° |
| 2026-05-05 15:24 | 46.56624 | 10.47709 | 35955 ft | 441 kts | 309° |
| 2026-05-05 15:24 | 46.61053 | 10.41498 | 35945 ft | 444 kts | 311° |
| 2026-05-05 15:25 | 46.66098 | 10.36164 | 35943 ft | 452 kts | 322° |
| 2026-05-05 15:25 | 46.71489 | 10.31408 | 35929 ft | 454 kts | 323° |
| 2026-05-05 15:26 | 46.76473 | 10.25973 | 35917 ft | 441 kts | 308° |
| 2026-05-05 15:26 | 46.79924 | 10.18794 | 35919 ft | 427 kts | 290° |
| 2026-05-05 15:27 | 46.82359 | 10.10906 | 35909 ft | 426 kts | 287° |
| 2026-05-05 15:27 | 46.84600 | 10.02881 | 35907 ft | 426 kts | 286° |
| 2026-05-05 15:28 | 46.86808 | 9.94919 | 35901 ft | 426 kts | 287° |
| 2026-05-05 15:28 | 46.89059 | 9.86903 | 35884 ft | 426 kts | 287° |
| 2026-05-05 15:29 | 46.91320 | 9.78887 | 35870 ft | 426 kts | 287° |
| 2026-05-05 15:29 | 46.93579 | 9.70863 | 35868 ft | 426 kts | 287° |
| 2026-05-05 15:30 | 46.95838 | 9.62808 | 35866 ft | 427 kts | 287° |
| 2026-05-05 15:30 | 46.98088 | 9.54757 | 35863 ft | 427 kts | 287° |
| 2026-05-05 15:31 | 47.00332 | 9.46697 | 35865 ft | 427 kts | 286° |
| 2026-05-05 15:31 | 47.02575 | 9.38619 | 35866 ft | 428 kts | 286° |
| 2026-05-05 15:32 | 47.04885 | 9.30557 | 35860 ft | 431 kts | 291° |
| 2026-05-05 15:32 | 47.07817 | 9.22837 | 35860 ft | 435 kts | 294° |
| 2026-05-05 15:33 | 47.10879 | 9.15232 | 35868 ft | 436 kts | 295° |
| 2026-05-05 15:33 | 47.13999 | 9.07564 | 35870 ft | 437 kts | 295° |
| 2026-05-05 15:34 | 47.17105 | 8.99884 | 35860 ft | 438 kts | 295° |
| 2026-05-05 15:34 | 47.20207 | 8.92165 | 35861 ft | 439 kts | 295° |
| 2026-05-05 15:35 | 47.23305 | 8.84424 | 35858 ft | 439 kts | 295° |
| 2026-05-05 15:35 | 47.26404 | 8.76657 | 35858 ft | 440 kts | 295° |
| 2026-05-05 15:36 | 47.29501 | 8.68875 | 35860 ft | 440 kts | 295° |
| 2026-05-05 15:36 | 47.32579 | 8.61119 | 35859 ft | 441 kts | 295° |
| 2026-05-05 15:37 | 47.35676 | 8.53293 | 35859 ft | 442 kts | 295° |
| 2026-05-05 15:37 | 47.38771 | 8.45448 | 35858 ft | 442 kts | 295° |
| 2026-05-05 15:38 | 47.41870 | 8.37571 | 35862 ft | 443 kts | 295° |
| 2026-05-05 15:38 | 47.44968 | 8.29673 | 35859 ft | 444 kts | 295° |
| 2026-05-05 15:39 | 47.48038 | 8.21824 | 35853 ft | 445 kts | 295° |
| 2026-05-05 15:39 | 47.51134 | 8.13887 | 35856 ft | 446 kts | 295° |
| 2026-05-05 15:40 | 47.54227 | 8.05930 | 35855 ft | 446 kts | 295° |
| 2026-05-05 15:40 | 47.57324 | 7.97942 | 35855 ft | 447 kts | 295° |
| 2026-05-05 15:41 | 47.60418 | 7.89940 | 35852 ft | 448 kts | 296° |
| 2026-05-05 15:41 | 47.63514 | 7.81907 | 35855 ft | 449 kts | 296° |
| 2026-05-05 15:42 | 47.66587 | 7.73909 | 35855 ft | 450 kts | 296° |
| 2026-05-05 15:42 | 47.69683 | 7.65827 | 35856 ft | 450 kts | 296° |
| 2026-05-05 15:43 | 47.72774 | 7.57726 | 35855 ft | 450 kts | 294° |
| 2026-05-05 15:43 | 47.75239 | 7.49249 | 35855 ft | 447 kts | 287° |
| 2026-05-05 15:44 | 47.77403 | 7.40578 | 35852 ft | 447 kts | 286° |
| 2026-05-05 15:44 | 47.79484 | 7.31932 | 35848 ft | 447 kts | 286° |
| 2026-05-05 15:45 | 47.81574 | 7.23216 | 35848 ft | 448 kts | 286° |
| 2026-05-05 15:45 | 47.83670 | 7.14488 | 35835 ft | 448 kts | 286° |
| 2026-05-05 15:46 | 47.85769 | 7.05739 | 35846 ft | 449 kts | 286° |
| 2026-05-05 15:46 | 47.87867 | 6.96964 | 35847 ft | 449 kts | 286° |
| 2026-05-05 15:47 | 47.89962 | 6.88162 | 35842 ft | 450 kts | 286° |
| 2026-05-05 15:47 | 47.92047 | 6.79366 | 35839 ft | 450 kts | 286° |
| 2026-05-05 15:48 | 47.94113 | 6.70614 | 35852 ft | 451 kts | 286° |
| 2026-05-05 15:48 | 47.96187 | 6.61795 | 35850 ft | 451 kts | 286° |
| 2026-05-05 15:49 | 47.98259 | 6.52948 | 35847 ft | 451 kts | 286° |
| 2026-05-05 15:49 | 48.00325 | 6.44090 | 35850 ft | 451 kts | 286° |
| 2026-05-05 15:50 | 48.02380 | 6.35240 | 35848 ft | 451 kts | 286° |
| 2026-05-05 15:50 | 48.04418 | 6.26429 | 35839 ft | 451 kts | 286° |
| 2026-05-05 15:51 | 48.06462 | 6.17558 | 35831 ft | 451 kts | 286° |
| 2026-05-05 15:51 | 48.08496 | 6.08690 | 35828 ft | 451 kts | 286° |
| 2026-05-05 15:52 | 48.10525 | 5.99809 | 35827 ft | 451 kts | 286° |
| 2026-05-05 15:52 | 48.12547 | 5.90924 | 35822 ft | 451 kts | 285° |
| 2026-05-05 15:53 | 48.14564 | 5.82018 | 35822 ft | 451 kts | 285° |
| 2026-05-05 15:53 | 48.16575 | 5.73105 | 35820 ft | 451 kts | 285° |
| 2026-05-05 15:54 | 48.18567 | 5.64240 | 35815 ft | 452 kts | 285° |
| 2026-05-05 15:54 | 48.20576 | 5.55257 | 35810 ft | 452 kts | 285° |
| 2026-05-05 15:55 | 48.22560 | 5.46352 | 35807 ft | 453 kts | 285° |
| 2026-05-05 15:55 | 48.24549 | 5.37387 | 35808 ft | 453 kts | 285° |
| 2026-05-05 15:56 | 48.26530 | 5.28416 | 35807 ft | 453 kts | 285° |
| 2026-05-05 15:56 | 48.28509 | 5.19421 | 35802 ft | 454 kts | 285° |
| 2026-05-05 15:57 | 48.30449 | 5.10400 | 35802 ft | 454 kts | 284° |
| 2026-05-05 15:57 | 48.32319 | 5.01346 | 35803 ft | 453 kts | 284° |
| 2026-05-05 15:58 | 48.34171 | 4.92286 | 35619 ft | 454 kts | 284° |
| 2026-05-05 15:58 | 48.35099 | 4.87743 | 35155 ft | 454 kts | 284° |
| 2026-05-05 15:58 | 48.36027 | 4.83197 | 34666 ft | 455 kts | 284° |
| 2026-05-05 15:58 | 48.36957 | 4.78638 | 34209 ft | 456 kts | 285° |
| 2026-05-05 15:59 | 48.37877 | 4.74126 | 33722 ft | 458 kts | 285° |
| 2026-05-05 15:59 | 48.38809 | 4.69539 | 33177 ft | 459 kts | 285° |
| 2026-05-05 15:59 | 48.39744 | 4.64928 | 32640 ft | 461 kts | 285° |
| 2026-05-05 15:59 | 48.40683 | 4.60292 | 32099 ft | 463 kts | 285° |
| 2026-05-05 16:00 | 48.41621 | 4.55647 | 31577 ft | 465 kts | 285° |
| 2026-05-05 16:00 | 48.42558 | 4.50993 | 31070 ft | 466 kts | 285° |
| 2026-05-05 16:00 | 48.43502 | 4.46299 | 30562 ft | 468 kts | 285° |
| 2026-05-05 16:00 | 48.44445 | 4.41591 | 30064 ft | 470 kts | 285° |
| 2026-05-05 16:01 | 48.45389 | 4.36874 | 29528 ft | 472 kts | 285° |
| 2026-05-05 16:01 | 48.46334 | 4.32137 | 28963 ft | 473 kts | 285° |
| 2026-05-05 16:01 | 48.47267 | 4.27448 | 28414 ft | 473 kts | 285° |
| 2026-05-05 16:01 | 48.48220 | 4.22647 | 27859 ft | 470 kts | 285° |
| 2026-05-05 16:02 | 48.49140 | 4.18006 | 27334 ft | 466 kts | 285° |
| 2026-05-05 16:02 | 48.50063 | 4.13336 | 26813 ft | 462 kts | 285° |
| 2026-05-05 16:02 | 48.50972 | 4.08728 | 26293 ft | 457 kts | 285° |
| 2026-05-05 16:02 | 48.51873 | 4.04150 | 25791 ft | 453 kts | 285° |
| 2026-05-05 16:03 | 48.52764 | 3.99603 | 25291 ft | 450 kts | 285° |
| 2026-05-05 16:03 | 48.53646 | 3.95097 | 24803 ft | 447 kts | 285° |
| 2026-05-05 16:03 | 48.54519 | 3.90621 | 24319 ft | 443 kts | 285° |
| 2026-05-05 16:03 | 48.55386 | 3.86162 | 23850 ft | 440 kts | 285° |
| 2026-05-05 16:04 | 48.56247 | 3.81733 | 23382 ft | 437 kts | 285° |
| 2026-05-05 16:04 | 48.57097 | 3.77344 | 22828 ft | 434 kts | 285° |
| 2026-05-05 16:04 | 48.57940 | 3.72991 | 22286 ft | 430 kts | 285° |
| 2026-05-05 16:04 | 48.58771 | 3.68687 | 21757 ft | 426 kts | 285° |
| 2026-05-05 16:05 | 48.59593 | 3.64417 | 21230 ft | 421 kts | 285° |
| 2026-05-05 16:05 | 48.60410 | 3.60181 | 20720 ft | 417 kts | 285° |
| 2026-05-05 16:05 | 48.61504 | 3.56132 | 20216 ft | 414 kts | 296° |
| 2026-05-05 16:05 | 48.62884 | 3.52345 | 19714 ft | 411 kts | 299° |
| 2026-05-05 16:06 | 48.64354 | 3.48669 | 19219 ft | 407 kts | 301° |
| 2026-05-05 16:06 | 48.65872 | 3.45071 | 18744 ft | 404 kts | 301° |
| 2026-05-05 16:06 | 48.67406 | 3.41519 | 18283 ft | 401 kts | 302° |
| 2026-05-05 16:06 | 48.68930 | 3.38010 | 17766 ft | 397 kts | 301° |
| 2026-05-05 16:07 | 48.70415 | 3.34578 | 17241 ft | 394 kts | 301° |
| 2026-05-05 16:07 | 48.71921 | 3.31077 | 16713 ft | 390 kts | 301° |
| 2026-05-05 16:07 | 48.73389 | 3.27640 | 16201 ft | 387 kts | 301° |
| 2026-05-05 16:07 | 48.74843 | 3.24221 | 15699 ft | 384 kts | 301° |
| 2026-05-05 16:08 | 48.76262 | 3.20872 | 15211 ft | 380 kts | 301° |
| 2026-05-05 16:08 | 48.77675 | 3.17529 | 14709 ft | 374 kts | 301° |
| 2026-05-05 16:08 | 48.79068 | 3.14228 | 14235 ft | 369 kts | 301° |
| 2026-05-05 16:08 | 48.80435 | 3.10987 | 13895 ft | 359 kts | 302° |
| 2026-05-05 16:09 | 48.81750 | 3.07865 | 13814 ft | 343 kts | 302° |
| 2026-05-05 16:09 | 48.83016 | 3.04857 | 13809 ft | 336 kts | 302° |
| 2026-05-05 16:09 | 48.84348 | 3.01937 | 13807 ft | 338 kts | 308° |
| 2026-05-05 16:09 | 48.85848 | 2.99170 | 13806 ft | 339 kts | 310° |
| 2026-05-05 16:10 | 48.87398 | 2.96470 | 13808 ft | 340 kts | 311° |
| 2026-05-05 16:10 | 48.88984 | 2.93803 | 13816 ft | 340 kts | 313° |
| 2026-05-05 16:10 | 48.90044 | 2.92047 | 13816 ft | 340 kts | 313° |
| 2026-05-05 16:10 | 48.91648 | 2.89407 | 13815 ft | 341 kts | 313° |
| 2026-05-05 16:11 | 48.93261 | 2.86753 | 13824 ft | 341 kts | 313° |
| 2026-05-05 16:11 | 48.97953 | 2.78625 | 13820 ft | 341 kts | 311° |
| 2026-05-05 16:12 | 48.99494 | 2.75882 | 13832 ft | 340 kts | 311° |
| 2026-05-05 16:12 | 49.02575 | 2.70399 | 13771 ft | 340 kts | 313° |
| 2026-05-05 16:13 | 49.07635 | 2.63145 | 12628 ft | 325 kts | 320° |
| 2026-05-05 16:13 | 49.09326 | 2.60891 | 12237 ft | 320 kts | 321° |
| 2026-05-05 16:13 | 49.10796 | 2.58366 | 11849 ft | 318 kts | 304° |
| 2026-05-05 16:14 | 49.12951 | 2.52591 | 11190 ft | 308 kts | 298° |
| 2026-05-05 16:14 | 49.14749 | 2.46749 | 10544 ft | 300 kts | 296° |
| 2026-05-05 16:15 | 49.16463 | 2.41022 | 9924 ft | 297 kts | 296° |
| 2026-05-05 16:15 | 49.17528 | 2.35005 | 9265 ft | 297 kts | 274° |
| 2026-05-05 16:16 | 49.17343 | 2.28759 | 8572 ft | 291 kts | 264° |
| 2026-05-05 16:16 | 49.16845 | 2.22689 | 7976 ft | 282 kts | 263° |
| 2026-05-05 16:17 | 49.16372 | 2.16810 | 7381 ft | 275 kts | 264° |
| 2026-05-05 16:17 | 49.15800 | 2.14067 | 7068 ft | 272 kts | 235° |
| 2026-05-05 16:18 | 49.12598 | 2.12044 | 6491 ft | 256 kts | 166° |
| 2026-05-05 16:18 | 49.10912 | 2.12821 | 6189 ft | 253 kts | 158° |
| 2026-05-05 16:18 | 49.07550 | 2.14546 | 5575 ft | 256 kts | 160° |
| 2026-05-05 16:19 | 49.05858 | 2.15312 | 5278 ft | 256 kts | 162° |
| 2026-05-05 16:19 | 49.04143 | 2.16044 | 4974 ft | 255 kts | 162° |
| 2026-05-05 16:19 | 49.01275 | 2.18665 | 4349 ft | 239 kts | 112° |
| 2026-05-05 16:20 | 49.00863 | 2.23409 | 4021 ft | 213 kts | 81° |
| 2026-05-05 16:20 | 49.01138 | 2.27628 | 3667 ft | 193 kts | 82° |
| 2026-05-05 16:21 | 49.01347 | 2.31629 | 3111 ft | 183 kts | 81° |
| 2026-05-05 16:22 | 49.01633 | 2.36915 | 2422 ft | 157 kts | 82° |
| 2026-05-05 16:22 | 49.01810 | 2.40211 | 2016 ft | 149 kts | 82° |
| 2026-05-05 16:23 | 49.01968 | 2.43159 | 1628 ft | 136 kts | 80° |
| 2026-05-05 16:23 | 49.02047 | 2.44611 | 1435 ft | 138 kts | 81° |
| 2026-05-05 16:23 | 49.02204 | 2.47532 | 1059 ft | 139 kts | 81° |
| 2026-05-05 16:24 | 49.02283 | 2.49001 | 863 ft | 140 kts | 81° |
| 2026-05-05 16:24 | 49.02362 | 2.50472 | 686 ft | 139 kts | 82° |
| 2026-05-05 16:24 | 49.02518 | 2.53355 | 361 ft | 132 kts | 85° |
| 2026-05-05 16:25 | 49.02577 | 2.54390 | 362 ft | 56 kts | 85° |
| 2026-05-05 16:25 | 49.02552 | 2.55348 | 362 ft | 39 kts | 111° |
| 2026-05-05 16:25 | 49.02449 | 2.55595 | 365 ft | 21 kts | 153° |
| 2026-05-05 16:26 | 49.02198 | 2.55644 | 361 ft | 15 kts | 177° |
| 2026-05-05 16:26 | 49.02029 | 2.55658 | 358 ft | 9 kts | 175° |
| 2026-05-05 16:27 | 49.01973 | 2.55667 | 358 ft | 7 kts | 174° |
| 2026-05-05 16:27 | 49.01931 | 2.55671 | 364 ft | 6 kts | 188° |
| 2026-05-05 16:27 | 49.01891 | 2.55596 | 360 ft | 11 kts | 265° |
| 2026-05-05 16:27 | 49.01882 | 2.55491 | 362 ft | 9 kts | 265° |
| 2026-05-05 16:28 | 49.01877 | 2.55406 | 362 ft | 8 kts | 265° |
| 2026-05-05 16:28 | 49.01871 | 2.55284 | 358 ft | 15 kts | 265° |
| 2026-05-05 16:28 | 49.01862 | 2.55107 | 361 ft | 16 kts | 263° |
| 2026-05-05 16:28 | 49.01853 | 2.54948 | 358 ft | 14 kts | 264° |
| 2026-05-05 16:29 | 49.01846 | 2.54817 | 358 ft | 11 kts | 265° |
| 2026-05-05 16:29 | 49.01840 | 2.54711 | 358 ft | 9 kts | 265° |
| 2026-05-05 16:29 | 49.01836 | 2.54626 | 358 ft | 9 kts | 265° |
| 2026-05-05 16:29 | 49.01830 | 2.54506 | 361 ft | 14 kts | 265° |
| 2026-05-05 16:30 | 49.01822 | 2.54345 | 357 ft | 15 kts | 266° |
| 2026-05-05 16:30 | 49.01813 | 2.54206 | 363 ft | 12 kts | 258° |
| 2026-05-05 16:30 | 49.01773 | 2.54131 | 364 ft | 8 kts | 201° |
| 2026-05-05 16:30 | 49.01731 | 2.54105 | 357 ft | 5 kts | 208° |
| 2026-05-05 16:31 | 49.01717 | 2.54091 | 363 ft | 0 kts | 205° |
| 2026-05-05 16:31 | 49.01717 | 2.54090 | 363 ft | 1 kts | 205° |
| 2026-05-05 16:31 | 49.01706 | 2.54078 | 361 ft | 3 kts | 220° |
| 2026-05-05 16:31 | 49.01701 | 2.54049 | 359 ft | 4 kts | 268° |
| 2026-05-05 16:32 | 49.01712 | 2.54000 | 359 ft | 6 kts | 296° |
| 2026-05-05 16:32 | 49.01706 | 2.53939 | 362 ft | 7 kts | 224° |
| 2026-05-05 16:32 | 49.01668 | 2.53915 | 360 ft | 4 kts | 193° |
| 2026-05-05 16:32 | 49.01662 | 2.53913 | 359 ft | 0 kts | 192° |